sensor_id;sensor_type;location;lat;lon;timestamp;temperature;humidity
50758;DHT22;36732;47.980;11.652;2022-10-19T00:01:48;18.10;66.90
50758;DHT22;36732;47.980;11.652;2022-10-19T00:04:14;18.10;66.90
50758;DHT22;36732;47.980;11.652;2022-10-19T00:06:40;18.10;66.90
50758;DHT22;36732;47.980;11.652;2022-10-19T00:09:11;18.00;66.80
50758;DHT22;36732;47.980;11.652;2022-10-19T00:11:40;18.00;66.80
50758;DHT22;36732;47.980;11.652;2022-10-19T00:14:13;18.00;66.80
50758;DHT22;36732;47.980;11.652;2022-10-19T00:16:42;18.00;66.80
50758;DHT22;36732;47.980;11.652;2022-10-19T00:19:13;18.00;66.70
50758;DHT22;36732;47.980;11.652;2022-10-19T00:21:40;18.00;66.40
50758;DHT22;36732;47.980;11.652;2022-10-19T00:24:07;18.00;66.60
50758;DHT22;36732;47.980;11.652;2022-10-19T00:26:33;18.00;66.50
50758;DHT22;36732;47.980;11.652;2022-10-19T00:28:59;18.00;66.50
50758;DHT22;36732;47.980;11.652;2022-10-19T00:31:25;17.90;66.40
50758;DHT22;36732;47.980;11.652;2022-10-19T00:33:51;17.90;66.50
50758;DHT22;36732;47.980;11.652;2022-10-19T00:36:26;17.90;66.50
50758;DHT22;36732;47.980;11.652;2022-10-19T00:38:55;17.90;66.50
50758;DHT22;36732;47.980;11.652;2022-10-19T00:41:23;17.90;66.60
50758;DHT22;36732;47.980;11.652;2022-10-19T00:46:51;17.90;66.50
50758;DHT22;36732;47.980;11.652;2022-10-19T00:49:21;17.90;66.50
50758;DHT22;36732;47.980;11.652;2022-10-19T00:52:00;17.80;67.00
50758;DHT22;36732;47.980;11.652;2022-10-19T00:54:32;17.80;66.30
50758;DHT22;36732;47.980;11.652;2022-10-19T00:56:59;17.80;66.20
50758;DHT22;36732;47.980;11.652;2022-10-19T00:59:26;17.80;66.10
50758;DHT22;36732;47.980;11.652;2022-10-19T01:01:53;17.80;66.10
50758;DHT22;36732;47.980;11.652;2022-10-19T01:04:20;17.80;66.10
50758;DHT22;36732;47.980;11.652;2022-10-19T01:06:47;17.80;66.10
50758;DHT22;36732;47.980;11.652;2022-10-19T01:09:13;17.80;66.00
50758;DHT22;36732;47.980;11.652;2022-10-19T01:16:50;17.70;65.50
50758;DHT22;36732;47.980;11.652;2022-10-19T01:32:02;17.60;65.70
50758;DHT22;36732;47.980;11.652;2022-10-19T01:37:13;17.60;65.30
50758;DHT22;36732;47.980;11.652;2022-10-19T01:39:52;17.60;65.70
50758;DHT22;36732;47.980;11.652;2022-10-19T01:47:53;17.60;65.00
50758;DHT22;36732;47.980;11.652;2022-10-19T01:50:28;17.50;64.90
50758;DHT22;36732;47.980;11.652;2022-10-19T01:52:58;17.50;65.00
50758;DHT22;36732;47.980;11.652;2022-10-19T01:55:25;17.50;65.10
50758;DHT22;36732;47.980;11.652;2022-10-19T01:57:58;17.50;65.10
50758;DHT22;36732;47.980;11.652;2022-10-19T02:00:27;17.50;65.10
50758;DHT22;36732;47.980;11.652;2022-10-19T02:02:54;17.40;65.10
50758;DHT22;36732;47.980;11.652;2022-10-19T02:05:23;17.50;65.20
50758;DHT22;36732;47.980;11.652;2022-10-19T02:08:06;17.40;65.30
50758;DHT22;36732;47.980;11.652;2022-10-19T02:10:40;17.40;65.40
50758;DHT22;36732;47.980;11.652;2022-10-19T02:13:08;17.40;65.50
50758;DHT22;36732;47.980;11.652;2022-10-19T02:15:37;17.40;65.60
50758;DHT22;36732;47.980;11.652;2022-10-19T02:18:06;17.40;65.70
50758;DHT22;36732;47.980;11.652;2022-10-19T02:20:34;17.40;65.80
50758;DHT22;36732;47.980;11.652;2022-10-19T02:23:05;17.40;65.90
50758;DHT22;36732;47.980;11.652;2022-10-19T02:25:32;17.40;66.00
50758;DHT22;36732;47.980;11.652;2022-10-19T02:27:59;17.40;66.00
50758;DHT22;36732;47.980;11.652;2022-10-19T02:30:26;17.40;66.10
50758;DHT22;36732;47.980;11.652;2022-10-19T02:32:52;17.40;66.10
50758;DHT22;36732;47.980;11.652;2022-10-19T02:35:18;17.40;66.20
50758;DHT22;36732;47.980;11.652;2022-10-19T02:37:44;17.40;66.20
50758;DHT22;36732;47.980;11.652;2022-10-19T02:40:10;17.40;66.10
50758;DHT22;36732;47.980;11.652;2022-10-19T02:42:49;17.40;66.10
50758;DHT22;36732;47.980;11.652;2022-10-19T02:45:26;17.40;66.10
50758;DHT22;36732;47.980;11.652;2022-10-19T02:47:57;17.40;66.10
50758;DHT22;36732;47.980;11.652;2022-10-19T02:50:25;17.40;66.20
50758;DHT22;36732;47.980;11.652;2022-10-19T02:52:51;17.40;66.10
50758;DHT22;36732;47.980;11.652;2022-10-19T02:55:17;17.40;66.20
50758;DHT22;36732;47.980;11.652;2022-10-19T02:57:42;17.40;66.30
50758;DHT22;36732;47.980;11.652;2022-10-19T03:00:09;17.40;66.30
50758;DHT22;36732;47.980;11.652;2022-10-19T03:02:35;17.40;66.40
50758;DHT22;36732;47.980;11.652;2022-10-19T03:05:01;17.40;66.50
50758;DHT22;36732;47.980;11.652;2022-10-19T03:07:27;17.40;66.50
50758;DHT22;36732;47.980;11.652;2022-10-19T03:09:52;17.40;66.50
50758;DHT22;36732;47.980;11.652;2022-10-19T03:12:18;17.40;66.60
50758;DHT22;36732;47.980;11.652;2022-10-19T03:14:44;17.40;66.60
50758;DHT22;36732;47.980;11.652;2022-10-19T03:17:10;17.40;66.70
50758;DHT22;36732;47.980;11.652;2022-10-19T03:19:36;17.40;66.80
50758;DHT22;36732;47.980;11.652;2022-10-19T03:22:02;17.40;66.80
50758;DHT22;36732;47.980;11.652;2022-10-19T03:24:29;17.40;66.90
50758;DHT22;36732;47.980;11.652;2022-10-19T03:26:55;17.40;66.90
50758;DHT22;36732;47.980;11.652;2022-10-19T03:29:21;17.40;67.00
50758;DHT22;36732;47.980;11.652;2022-10-19T03:31:47;17.40;67.00
50758;DHT22;36732;47.980;11.652;2022-10-19T03:34:13;17.40;67.10
50758;DHT22;36732;47.980;11.652;2022-10-19T03:36:39;17.50;67.20
50758;DHT22;36732;47.980;11.652;2022-10-19T03:39:09;17.40;67.20
50758;DHT22;36732;47.980;11.652;2022-10-19T03:41:37;17.40;67.20
50758;DHT22;36732;47.980;11.652;2022-10-19T03:44:04;17.50;67.30
50758;DHT22;36732;47.980;11.652;2022-10-19T03:46:31;17.50;67.30
50758;DHT22;36732;47.980;11.652;2022-10-19T03:48:57;17.50;67.30
50758;DHT22;36732;47.980;11.652;2022-10-19T03:51:25;17.50;67.40
50758;DHT22;36732;47.980;11.652;2022-10-19T03:53:53;17.50;67.40
50758;DHT22;36732;47.980;11.652;2022-10-19T03:56:22;17.50;67.40
50758;DHT22;36732;47.980;11.652;2022-10-19T03:58:50;17.50;67.50
50758;DHT22;36732;47.980;11.652;2022-10-19T04:01:28;17.50;67.50
50758;DHT22;36732;47.980;11.652;2022-10-19T04:04:04;17.50;67.60
50758;DHT22;36732;47.980;11.652;2022-10-19T04:06:37;17.50;67.70
50758;DHT22;36732;47.980;11.652;2022-10-19T04:09:05;17.50;67.70
50758;DHT22;36732;47.980;11.652;2022-10-19T04:11:32;17.50;67.70
50758;DHT22;36732;47.980;11.652;2022-10-19T04:13:59;17.50;67.70
50758;DHT22;36732;47.980;11.652;2022-10-19T04:16:27;17.50;67.60
50758;DHT22;36732;47.980;11.652;2022-10-19T04:18:54;17.50;67.50
50758;DHT22;36732;47.980;11.652;2022-10-19T04:21:32;17.50;67.50
50758;DHT22;36732;47.980;11.652;2022-10-19T04:24:11;17.50;67.60
50758;DHT22;36732;47.980;11.652;2022-10-19T04:26:46;17.50;67.50
50758;DHT22;36732;47.980;11.652;2022-10-19T04:29:14;17.40;67.50
50758;DHT22;36732;47.980;11.652;2022-10-19T04:31:41;17.40;67.60
50758;DHT22;36732;47.980;11.652;2022-10-19T04:34:07;17.40;67.60
50758;DHT22;36732;47.980;11.652;2022-10-19T04:36:33;17.40;67.70
50758;DHT22;36732;47.980;11.652;2022-10-19T04:38:59;17.40;67.70
50758;DHT22;36732;47.980;11.652;2022-10-19T04:41:24;17.40;67.90
50758;DHT22;36732;47.980;11.652;2022-10-19T04:43:56;17.40;67.80
50758;DHT22;36732;47.980;11.652;2022-10-19T04:46:23;17.40;67.70
50758;DHT22;36732;47.980;11.652;2022-10-19T04:48:49;17.40;67.60
50758;DHT22;36732;47.980;11.652;2022-10-19T04:51:16;17.40;67.60
50758;DHT22;36732;47.980;11.652;2022-10-19T04:53:43;17.40;67.70
50758;DHT22;36732;47.980;11.652;2022-10-19T04:56:20;17.40;67.70
50758;DHT22;36732;47.980;11.652;2022-10-19T04:58:48;17.40;67.90
50758;DHT22;36732;47.980;11.652;2022-10-19T05:01:19;17.30;67.90
50758;DHT22;36732;47.980;11.652;2022-10-19T05:03:46;17.30;68.10
50758;DHT22;36732;47.980;11.652;2022-10-19T05:06:13;17.30;68.00
50758;DHT22;36732;47.980;11.652;2022-10-19T05:08:40;17.30;68.10
50758;DHT22;36732;47.980;11.652;2022-10-19T05:11:11;17.30;68.10
50758;DHT22;36732;47.980;11.652;2022-10-19T05:13:39;17.30;68.40
50758;DHT22;36732;47.980;11.652;2022-10-19T05:16:06;17.30;68.40
50758;DHT22;36732;47.980;11.652;2022-10-19T05:18:35;17.30;68.50
50758;DHT22;36732;47.980;11.652;2022-10-19T05:21:04;17.30;68.50
50758;DHT22;36732;47.980;11.652;2022-10-19T05:23:31;17.30;68.60
50758;DHT22;36732;47.980;11.652;2022-10-19T05:28:28;17.30;68.80
50758;DHT22;36732;47.980;11.652;2022-10-19T05:30:54;17.30;68.80
50758;DHT22;36732;47.980;11.652;2022-10-19T05:33:20;17.30;68.90
50758;DHT22;36732;47.980;11.652;2022-10-19T05:35:45;17.30;69.00
50758;DHT22;36732;47.980;11.652;2022-10-19T05:38:11;17.30;69.10
50758;DHT22;36732;47.980;11.652;2022-10-19T05:40:37;17.30;69.10
50758;DHT22;36732;47.980;11.652;2022-10-19T05:43:02;17.30;69.10
50758;DHT22;36732;47.980;11.652;2022-10-19T05:45:28;17.30;69.20
50758;DHT22;36732;47.980;11.652;2022-10-19T05:47:54;17.30;69.40
50758;DHT22;36732;47.980;11.652;2022-10-19T05:50:19;17.40;69.40
50758;DHT22;36732;47.980;11.652;2022-10-19T05:52:45;17.30;69.30
50758;DHT22;36732;47.980;11.652;2022-10-19T05:55:11;17.30;69.50
50758;DHT22;36732;47.980;11.652;2022-10-19T05:57:36;17.30;69.50
50758;DHT22;36732;47.980;11.652;2022-10-19T06:00:03;17.40;69.60
50758;DHT22;36732;47.980;11.652;2022-10-19T06:02:30;17.30;69.70
50758;DHT22;36732;47.980;11.652;2022-10-19T06:04:56;17.30;69.70
50758;DHT22;36732;47.980;11.652;2022-10-19T06:07:21;17.40;69.70
50758;DHT22;36732;47.980;11.652;2022-10-19T06:09:47;17.40;69.70
50758;DHT22;36732;47.980;11.652;2022-10-19T06:12:13;17.40;69.90
50758;DHT22;36732;47.980;11.652;2022-10-19T06:14:38;17.40;70.00
50758;DHT22;36732;47.980;11.652;2022-10-19T06:17:04;17.40;70.10
50758;DHT22;36732;47.980;11.652;2022-10-19T06:19:31;17.40;70.10
50758;DHT22;36732;47.980;11.652;2022-10-19T06:21:56;17.40;70.20
50758;DHT22;36732;47.980;11.652;2022-10-19T06:24:22;17.40;70.50
50758;DHT22;36732;47.980;11.652;2022-10-19T06:26:48;17.40;70.60
50758;DHT22;36732;47.980;11.652;2022-10-19T06:29:14;17.40;70.60
50758;DHT22;36732;47.980;11.652;2022-10-19T06:31:39;17.40;70.70
50758;DHT22;36732;47.980;11.652;2022-10-19T06:34:05;17.40;70.80
50758;DHT22;36732;47.980;11.652;2022-10-19T06:36:31;17.40;71.00
50758;DHT22;36732;47.980;11.652;2022-10-19T06:38:57;17.40;71.10
50758;DHT22;36732;47.980;11.652;2022-10-19T06:41:27;17.40;71.10
50758;DHT22;36732;47.980;11.652;2022-10-19T06:43:54;17.40;71.20
50758;DHT22;36732;47.980;11.652;2022-10-19T06:46:22;17.40;71.30
50758;DHT22;36732;47.980;11.652;2022-10-19T06:48:52;17.40;71.40
50758;DHT22;36732;47.980;11.652;2022-10-19T06:51:20;17.40;71.50
50758;DHT22;36732;47.980;11.652;2022-10-19T06:53:46;17.40;71.60
50758;DHT22;36732;47.980;11.652;2022-10-19T06:56:12;17.40;71.70
50758;DHT22;36732;47.980;11.652;2022-10-19T06:58:38;17.40;71.80
50758;DHT22;36732;47.980;11.652;2022-10-19T07:01:05;17.40;72.00
50758;DHT22;36732;47.980;11.652;2022-10-19T07:03:32;17.50;72.00
50758;DHT22;36732;47.980;11.652;2022-10-19T07:06:06;17.40;72.00
50758;DHT22;36732;47.980;11.652;2022-10-19T07:08:34;17.40;72.30
50758;DHT22;36732;47.980;11.652;2022-10-19T07:11:07;17.40;72.10
50758;DHT22;36732;47.980;11.652;2022-10-19T07:13:37;17.50;72.00
50758;DHT22;36732;47.980;11.652;2022-10-19T07:16:11;17.50;72.00
50758;DHT22;36732;47.980;11.652;2022-10-19T07:18:40;17.50;72.20
50758;DHT22;36732;47.980;11.652;2022-10-19T07:21:08;17.50;71.90
50758;DHT22;36732;47.980;11.652;2022-10-19T07:23:38;17.50;71.90
50758;DHT22;36732;47.980;11.652;2022-10-19T07:26:17;17.50;71.80
50758;DHT22;36732;47.980;11.652;2022-10-19T07:28:49;17.50;72.20
50758;DHT22;36732;47.980;11.652;2022-10-19T07:31:17;17.60;72.00
50758;DHT22;36732;47.980;11.652;2022-10-19T07:33:45;17.50;72.00
50758;DHT22;36732;47.980;11.652;2022-10-19T07:36:12;17.60;72.00
50758;DHT22;36732;47.980;11.652;2022-10-19T07:38:38;17.60;72.10
50758;DHT22;36732;47.980;11.652;2022-10-19T07:41:10;17.60;72.00
50758;DHT22;36732;47.980;11.652;2022-10-19T07:43:37;17.60;72.00
50758;DHT22;36732;47.980;11.652;2022-10-19T07:46:09;17.60;71.80
50758;DHT22;36732;47.980;11.652;2022-10-19T07:48:36;17.60;72.00
50758;DHT22;36732;47.980;11.652;2022-10-19T07:51:04;17.70;71.90
50758;DHT22;36732;47.980;11.652;2022-10-19T07:53:31;17.70;71.70
50758;DHT22;36732;47.980;11.652;2022-10-19T07:56:12;17.70;71.60
50758;DHT22;36732;47.980;11.652;2022-10-19T07:58:47;17.70;71.60
50758;DHT22;36732;47.980;11.652;2022-10-19T08:01:17;17.70;71.70
50758;DHT22;36732;47.980;11.652;2022-10-19T08:03:53;17.70;71.60
50758;DHT22;36732;47.980;11.652;2022-10-19T08:06:20;17.70;71.60
50758;DHT22;36732;47.980;11.652;2022-10-19T08:08:47;17.70;71.80
50758;DHT22;36732;47.980;11.652;2022-10-19T08:11:21;17.70;71.80
50758;DHT22;36732;47.980;11.652;2022-10-19T08:13:48;17.70;71.90
50758;DHT22;36732;47.980;11.652;2022-10-19T08:19:02;17.70;72.00
50758;DHT22;36732;47.980;11.652;2022-10-19T08:21:30;17.80;71.80
50758;DHT22;36732;47.980;11.652;2022-10-19T08:23:56;17.70;71.70
50758;DHT22;36732;47.980;11.652;2022-10-19T08:26:22;17.80;71.70
50758;DHT22;36732;47.980;11.652;2022-10-19T08:28:48;17.70;71.80
50758;DHT22;36732;47.980;11.652;2022-10-19T08:31:22;17.80;71.80
50758;DHT22;36732;47.980;11.652;2022-10-19T08:33:49;17.80;71.90
50758;DHT22;36732;47.980;11.652;2022-10-19T08:36:15;17.80;71.90
50758;DHT22;36732;47.980;11.652;2022-10-19T08:38:41;17.80;71.80
50758;DHT22;36732;47.980;11.652;2022-10-19T08:49:20;17.80;71.90
50758;DHT22;36732;47.980;11.652;2022-10-19T08:52:03;17.80;72.00
50758;DHT22;36732;47.980;11.652;2022-10-19T08:54:47;17.80;72.30
50758;DHT22;36732;47.980;11.652;2022-10-19T08:57:39;17.80;72.00
50758;DHT22;36732;47.980;11.652;2022-10-19T09:00:21;17.80;72.00
50758;DHT22;36732;47.980;11.652;2022-10-19T09:08:44;17.80;71.80
50758;DHT22;36732;47.980;11.652;2022-10-19T09:11:10;17.80;72.00
50758;DHT22;36732;47.980;11.652;2022-10-19T09:13:44;17.90;71.90
50758;DHT22;36732;47.980;11.652;2022-10-19T09:16:13;17.80;72.00
50758;DHT22;36732;47.980;11.652;2022-10-19T09:18:39;17.90;72.00
50758;DHT22;36732;47.980;11.652;2022-10-19T09:21:25;17.90;72.00
50758;DHT22;36732;47.980;11.652;2022-10-19T09:23:57;17.90;73.10
50758;DHT22;36732;47.980;11.652;2022-10-19T09:26:30;17.90;72.00
50758;DHT22;36732;47.980;11.652;2022-10-19T09:29:15;17.80;72.00
50758;DHT22;36732;47.980;11.652;2022-10-19T09:31:52;17.90;71.90
50758;DHT22;36732;47.980;11.652;2022-10-19T09:36:52;17.90;71.70
50758;DHT22;36732;47.980;11.652;2022-10-19T09:39:21;17.90;72.00
50758;DHT22;36732;47.980;11.652;2022-10-19T09:41:56;17.90;72.00
50758;DHT22;36732;47.980;11.652;2022-10-19T09:44:25;17.90;72.00
50758;DHT22;36732;47.980;11.652;2022-10-19T09:49:40;17.90;72.10
50758;DHT22;36732;47.980;11.652;2022-10-19T09:54:50;17.90;71.90
50758;DHT22;36732;47.980;11.652;2022-10-19T09:57:26;17.90;71.90
50758;DHT22;36732;47.980;11.652;2022-10-19T09:59:52;17.90;71.90
50758;DHT22;36732;47.980;11.652;2022-10-19T10:02:27;17.90;71.90
50758;DHT22;36732;47.980;11.652;2022-10-19T10:05:03;17.90;72.00
50758;DHT22;36732;47.980;11.652;2022-10-19T10:07:38;17.90;72.00
50758;DHT22;36732;47.980;11.652;2022-10-19T10:10:22;17.90;72.00
50758;DHT22;36732;47.980;11.652;2022-10-19T10:12:50;18.00;72.20
50758;DHT22;36732;47.980;11.652;2022-10-19T10:15:22;18.00;72.00
50758;DHT22;36732;47.980;11.652;2022-10-19T10:17:51;17.90;72.10
50758;DHT22;36732;47.980;11.652;2022-10-19T10:23:00;18.00;72.00
50758;DHT22;36732;47.980;11.652;2022-10-19T10:25:32;18.00;72.00
50758;DHT22;36732;47.980;11.652;2022-10-19T10:28:18;18.00;71.90
50758;DHT22;36732;47.980;11.652;2022-10-19T10:30:47;18.00;72.00
50758;DHT22;36732;47.980;11.652;2022-10-19T10:33:22;18.00;71.80
50758;DHT22;36732;47.980;11.652;2022-10-19T10:35:55;18.00;71.80
50758;DHT22;36732;47.980;11.652;2022-10-19T10:38:26;18.00;71.70
50758;DHT22;36732;47.980;11.652;2022-10-19T10:44:01;18.00;71.80
50758;DHT22;36732;47.980;11.652;2022-10-19T10:47:01;18.00;72.00
50758;DHT22;36732;47.980;11.652;2022-10-19T10:49:35;18.00;72.10
50758;DHT22;36732;47.980;11.652;2022-10-19T10:52:06;18.00;72.10
50758;DHT22;36732;47.980;11.652;2022-10-19T10:54:34;18.00;72.00
50758;DHT22;36732;47.980;11.652;2022-10-19T11:05:42;18.00;72.20
50758;DHT22;36732;47.980;11.652;2022-10-19T11:08:21;18.00;72.20
50758;DHT22;36732;47.980;11.652;2022-10-19T11:10:54;18.00;72.10
50758;DHT22;36732;47.980;11.652;2022-10-19T11:13:34;18.00;72.00
50758;DHT22;36732;47.980;11.652;2022-10-19T11:16:23;18.00;72.10
50758;DHT22;36732;47.980;11.652;2022-10-19T11:21:56;18.00;72.00
50758;DHT22;36732;47.980;11.652;2022-10-19T11:28:13;18.00;72.00
50758;DHT22;36732;47.980;11.652;2022-10-19T11:39:34;18.00;71.90
50758;DHT22;36732;47.980;11.652;2022-10-19T11:45:34;18.00;71.90
50758;DHT22;36732;47.980;11.652;2022-10-19T11:59:35;18.00;71.70
50758;DHT22;36732;47.980;11.652;2022-10-19T12:02:40;18.10;71.80
50758;DHT22;36732;47.980;11.652;2022-10-19T12:12:40;18.10;71.80
50758;DHT22;36732;47.980;11.652;2022-10-19T12:14:56;18.10;71.80
50758;DHT22;36732;47.980;11.652;2022-10-19T12:17:38;18.10;72.20
50758;DHT22;36732;47.980;11.652;2022-10-19T12:20:14;18.00;71.40
50758;DHT22;36732;47.980;11.652;2022-10-19T12:22:47;18.00;71.40
50758;DHT22;36732;47.980;11.652;2022-10-19T12:25:14;18.10;71.60
50758;DHT22;36732;47.980;11.652;2022-10-19T12:27:41;18.10;71.50
50758;DHT22;36732;47.980;11.652;2022-10-19T12:30:20;18.10;71.60
50758;DHT22;36732;47.980;11.652;2022-10-19T12:33:14;18.00;71.70
50758;DHT22;36732;47.980;11.652;2022-10-19T12:36:21;18.10;72.50
50758;DHT22;36732;47.980;11.652;2022-10-19T12:39:33;18.00;71.70
50758;DHT22;36732;47.980;11.652;2022-10-19T12:53:30;18.10;71.80
50758;DHT22;36732;47.980;11.652;2022-10-19T12:58:43;18.10;71.40
50758;DHT22;36732;47.980;11.652;2022-10-19T13:01:22;18.10;71.40
50758;DHT22;36732;47.980;11.652;2022-10-19T13:04:05;18.10;71.30
50758;DHT22;36732;47.980;11.652;2022-10-19T13:06:43;18.20;71.30
50758;DHT22;36732;47.980;11.652;2022-10-19T13:09:36;18.20;71.20
50758;DHT22;36732;47.980;11.652;2022-10-19T13:41:24;18.30;70.30
50758;DHT22;36732;47.980;11.652;2022-10-19T13:44:16;18.30;70.30
50758;DHT22;36732;47.980;11.652;2022-10-19T13:47:13;18.30;70.10
50758;DHT22;36732;47.980;11.652;2022-10-19T13:53:18;18.30;69.90
50758;DHT22;36732;47.980;11.652;2022-10-19T14:01:45;18.30;69.70
50758;DHT22;36732;47.980;11.652;2022-10-19T14:04:45;18.30;69.70
50758;DHT22;36732;47.980;11.652;2022-10-19T14:07:35;18.30;69.70
50758;DHT22;36732;47.980;11.652;2022-10-19T14:12:41;18.30;69.70
50758;DHT22;36732;47.980;11.652;2022-10-19T14:15:20;18.30;69.70
50758;DHT22;36732;47.980;11.652;2022-10-19T14:17:46;18.30;69.30
50758;DHT22;36732;47.980;11.652;2022-10-19T14:20:28;18.30;69.60
50758;DHT22;36732;47.980;11.652;2022-10-19T14:22:54;18.30;69.30
50758;DHT22;36732;47.980;11.652;2022-10-19T14:25:23;18.30;69.50
50758;DHT22;36732;47.980;11.652;2022-10-19T14:27:59;18.30;69.50
50758;DHT22;36732;47.980;11.652;2022-10-19T14:30:28;18.30;69.40
50758;DHT22;36732;47.980;11.652;2022-10-19T14:32:57;18.30;69.60
50758;DHT22;36732;47.980;11.652;2022-10-19T14:35:35;18.30;69.60
50758;DHT22;36732;47.980;11.652;2022-10-19T14:38:04;18.30;69.50
50758;DHT22;36732;47.980;11.652;2022-10-19T14:40:32;18.30;69.50
50758;DHT22;36732;47.980;11.652;2022-10-19T14:43:13;18.30;69.50
50758;DHT22;36732;47.980;11.652;2022-10-19T14:46:02;18.30;69.50
50758;DHT22;36732;47.980;11.652;2022-10-19T14:48:31;18.30;69.30
50758;DHT22;36732;47.980;11.652;2022-10-19T14:50:58;18.30;69.40
50758;DHT22;36732;47.980;11.652;2022-10-19T14:53:38;18.30;69.40
50758;DHT22;36732;47.980;11.652;2022-10-19T14:56:22;18.30;69.30
50758;DHT22;36732;47.980;11.652;2022-10-19T14:59:01;18.30;69.30
50758;DHT22;36732;47.980;11.652;2022-10-19T15:01:29;18.30;69.20
50758;DHT22;36732;47.980;11.652;2022-10-19T15:03:55;18.40;69.30
50758;DHT22;36732;47.980;11.652;2022-10-19T15:06:25;18.30;69.00
50758;DHT22;36732;47.980;11.652;2022-10-19T15:08:58;18.30;69.00
50758;DHT22;36732;47.980;11.652;2022-10-19T15:11:30;18.30;68.90
50758;DHT22;36732;47.980;11.652;2022-10-19T15:14:02;18.40;69.00
50758;DHT22;36732;47.980;11.652;2022-10-19T15:16:50;18.40;69.10
50758;DHT22;36732;47.980;11.652;2022-10-19T15:19:38;18.40;68.90
50758;DHT22;36732;47.980;11.652;2022-10-19T15:27:42;18.30;68.70
50758;DHT22;36732;47.980;11.652;2022-10-19T15:32:43;18.30;68.90
50758;DHT22;36732;47.980;11.652;2022-10-19T15:35:35;18.30;68.90
50758;DHT22;36732;47.980;11.652;2022-10-19T15:40:40;18.30;68.80
50758;DHT22;36732;47.980;11.652;2022-10-19T15:46:19;18.30;68.80
50758;DHT22;36732;47.980;11.652;2022-10-19T15:51:45;18.30;68.80
50758;DHT22;36732;47.980;11.652;2022-10-19T15:54:13;18.30;68.60
50758;DHT22;36732;47.980;11.652;2022-10-19T15:56:43;18.30;68.70
50758;DHT22;36732;47.980;11.652;2022-10-19T15:59:19;18.30;68.70
50758;DHT22;36732;47.980;11.652;2022-10-19T16:01:46;18.30;68.50
50758;DHT22;36732;47.980;11.652;2022-10-19T16:04:14;18.30;68.60
50758;DHT22;36732;47.980;11.652;2022-10-19T16:06:42;18.30;68.50
50758;DHT22;36732;47.980;11.652;2022-10-19T16:09:17;18.30;68.50
50758;DHT22;36732;47.980;11.652;2022-10-19T16:11:45;18.20;68.70
50758;DHT22;36732;47.980;11.652;2022-10-19T16:14:10;18.20;68.30
50758;DHT22;36732;47.980;11.652;2022-10-19T16:16:36;18.20;68.10
50758;DHT22;36732;47.980;11.652;2022-10-19T16:19:02;18.20;68.00
50758;DHT22;36732;47.980;11.652;2022-10-19T16:21:33;18.20;68.00
50758;DHT22;36732;47.980;11.652;2022-10-19T16:24:00;18.20;67.80
50758;DHT22;36732;47.980;11.652;2022-10-19T16:26:26;18.10;67.90
50758;DHT22;36732;47.980;11.652;2022-10-19T16:28:53;18.10;68.00
50758;DHT22;36732;47.980;11.652;2022-10-19T16:31:19;18.10;68.00
50758;DHT22;36732;47.980;11.652;2022-10-19T16:33:45;18.10;68.20
50758;DHT22;36732;47.980;11.652;2022-10-19T16:36:11;18.10;68.40
50758;DHT22;36732;47.980;11.652;2022-10-19T16:38:37;18.10;68.40
50758;DHT22;36732;47.980;11.652;2022-10-19T16:41:06;18.10;68.40
50758;DHT22;36732;47.980;11.652;2022-10-19T16:43:33;18.00;68.50
50758;DHT22;36732;47.980;11.652;2022-10-19T16:46:00;18.10;68.60
50758;DHT22;36732;47.980;11.652;2022-10-19T16:48:26;18.10;68.70
50758;DHT22;36732;47.980;11.652;2022-10-19T16:53:30;18.10;68.60
50758;DHT22;36732;47.980;11.652;2022-10-19T16:56:06;18.10;68.60
50758;DHT22;36732;47.980;11.652;2022-10-19T16:58:34;18.10;68.70
50758;DHT22;36732;47.980;11.652;2022-10-19T17:01:15;18.10;68.60
50758;DHT22;36732;47.980;11.652;2022-10-19T17:03:46;18.10;68.70
50758;DHT22;36732;47.980;11.652;2022-10-19T17:06:13;18.10;68.70
50758;DHT22;36732;47.980;11.652;2022-10-19T17:08:40;18.10;68.80
50758;DHT22;36732;47.980;11.652;2022-10-19T17:11:14;18.10;68.90
50758;DHT22;36732;47.980;11.652;2022-10-19T17:13:43;18.20;68.80
50758;DHT22;36732;47.980;11.652;2022-10-19T17:16:10;18.20;68.80
50758;DHT22;36732;47.980;11.652;2022-10-19T17:18:37;18.20;68.50
50758;DHT22;36732;47.980;11.652;2022-10-19T17:21:14;18.20;68.50
50758;DHT22;36732;47.980;11.652;2022-10-19T17:23:42;18.20;68.50
50758;DHT22;36732;47.980;11.652;2022-10-19T17:26:08;18.20;68.50
50758;DHT22;36732;47.980;11.652;2022-10-19T17:28:36;18.30;68.50
50758;DHT22;36732;47.980;11.652;2022-10-19T17:31:09;18.30;68.50
50758;DHT22;36732;47.980;11.652;2022-10-19T17:33:36;18.30;68.20
50758;DHT22;36732;47.980;11.652;2022-10-19T17:36:15;18.30;68.10
50758;DHT22;36732;47.980;11.652;2022-10-19T17:38:45;18.30;68.10
50758;DHT22;36732;47.980;11.652;2022-10-19T17:41:14;18.30;68.20
50758;DHT22;36732;47.980;11.652;2022-10-19T17:43:42;18.30;68.10
50758;DHT22;36732;47.980;11.652;2022-10-19T17:46:11;18.30;68.10
50758;DHT22;36732;47.980;11.652;2022-10-19T17:48:40;18.30;68.10
50758;DHT22;36732;47.980;11.652;2022-10-19T17:51:10;18.30;68.00
50758;DHT22;36732;47.980;11.652;2022-10-19T17:53:37;18.40;68.00
50758;DHT22;36732;47.980;11.652;2022-10-19T17:56:05;18.40;68.00
50758;DHT22;36732;47.980;11.652;2022-10-19T17:58:32;18.40;67.90
50758;DHT22;36732;47.980;11.652;2022-10-19T18:00:59;18.40;67.80
50758;DHT22;36732;47.980;11.652;2022-10-19T18:03:28;18.40;67.70
50758;DHT22;36732;47.980;11.652;2022-10-19T18:06:16;18.40;67.70
50758;DHT22;36732;47.980;11.652;2022-10-19T18:08:46;18.40;67.40
50758;DHT22;36732;47.980;11.652;2022-10-19T18:11:25;18.40;67.20
50758;DHT22;36732;47.980;11.652;2022-10-19T18:13:53;18.40;67.10
50758;DHT22;36732;47.980;11.652;2022-10-19T18:16:24;18.40;66.90
50758;DHT22;36732;47.980;11.652;2022-10-19T18:18:54;18.40;67.00
50758;DHT22;36732;47.980;11.652;2022-10-19T18:21:25;18.40;67.00
50758;DHT22;36732;47.980;11.652;2022-10-19T18:23:55;18.40;66.90
50758;DHT22;36732;47.980;11.652;2022-10-19T18:26:24;18.40;66.80
50758;DHT22;36732;47.980;11.652;2022-10-19T18:28:52;18.40;66.60
50758;DHT22;36732;47.980;11.652;2022-10-19T18:31:29;18.40;66.70
50758;DHT22;36732;47.980;11.652;2022-10-19T18:33:58;18.40;66.20
50758;DHT22;36732;47.980;11.652;2022-10-19T18:36:25;18.40;66.60
50758;DHT22;36732;47.980;11.652;2022-10-19T18:38:56;18.40;66.60
50758;DHT22;36732;47.980;11.652;2022-10-19T18:41:23;18.40;66.30